Bookmark and Share
Track history (hours):
 

Four Nabucco

Last reported at 2014-Apr-19 07:33 UTC. Time now 2014-Apr-20 11:40 UTC.
Position N 35°00' E 139°37'.

Length 180 m; draft 7.1 m.

Type: Cargo ship. MMSI: 319030700.

NotesDate/timePositionNaut miles runAvg speedWind from/ knotsBaromVisibWave heightAir tempDewpointWater temp
2014-Apr-19 07:33N 35°00' E 139°37'1313.1
2014-Apr-19 06:33N 35°11' E 139°46'1111.4
2014-Apr-19 05:33N 35°22' E 139°42'1313.1
2014-Apr-19 04:33N 35°31' E 139°54'1010.4
2014-Apr-19 03:33N 35°35' E 140°06'0 0.0
2014-Apr-19 02:31N 35°35' E 140°06'0 0.0
2014-Apr-19 01:28N 35°35' E 140°06'0 0.0
2014-Apr-19 00:19N 35°35' E 140°06'0 0.0
2014-Apr-18 23:31N 35°35' E 140°06'0 0.0
2014-Apr-18 22:31N 35°35' E 140°06'0 0.0
2014-Apr-18 21:31N 35°35' E 140°06'0 0.0
2014-Apr-18 20:31N 35°35' E 140°06'0 0.0
2014-Apr-18 19:28N 35°35' E 140°06'0 0.0
2014-Apr-18 18:31N 35°35' E 140°06'0 0.0
2014-Apr-18 17:25N 35°35' E 140°06'0 0.0
2014-Apr-18 16:28N 35°35' E 140°06'0 0.0
2014-Apr-18 15:25N 35°35' E 140°06'0 0.0
2014-Apr-18 14:31N 35°35' E 140°06'0 0.0
2014-Apr-18 13:28N 35°35' E 140°06'0 0.0
2014-Apr-18 12:31N 35°35' E 140°06'0 0.0
2014-Apr-18 11:28N 35°35' E 140°06'0 0.0
2014-Apr-18 10:31N 35°35' E 140°06'0 0.0
2014-Apr-18 09:31N 35°35' E 140°06'0 0.0
2014-Apr-18 08:28N 35°35' E 140°06'0 0.0
2014-Apr-18 07:31N 35°35' E 140°06'0 0.0
2014-Apr-18 06:31N 35°35' E 140°06'0 0.0
2014-Apr-18 05:31N 35°35' E 140°06'0 0.0
2014-Apr-18 04:22N 35°35' E 140°06'0 0.0
2014-Apr-18 03:31N 35°35' E 140°06'0 0.0
2014-Apr-18 02:28N 35°35' E 140°06'0 0.0
2014-Apr-18 01:31N 35°35' E 140°06'0 0.0
2014-Apr-18 00:31N 35°35' E 140°06'0 0.0
2014-Apr-17 23:25N 35°35' E 140°06'0 0.0
2014-Apr-17 22:31N 35°35' E 140°06'0 0.0
2014-Apr-17 21:22N 35°35' E 140°06'0 0.0
2014-Apr-17 20:31N 35°35' E 140°06'0 0.0
2014-Apr-17 19:31N 35°35' E 140°06'0 0.0
2014-Apr-17 18:28N 35°35' E 140°06'0 0.0
2014-Apr-17 17:28N 35°35' E 140°06'0 0.0
2014-Apr-17 16:22N 35°35' E 140°06'0 0.0
2014-Apr-17 15:31N 35°35' E 140°06'0 0.0
2014-Apr-17 14:31N 35°35' E 140°06'0 0.0
2014-Apr-17 13:31N 35°35' E 140°06'0 0.0
2014-Apr-17 12:31N 35°35' E 140°06'0 0.0
2014-Apr-17 11:25N 35°35' E 140°06'0 0.0
2014-Apr-17 10:28N 35°35' E 140°06'0 0.0
2014-Apr-17 09:31N 35°35' E 140°06'0 0.0
2014-Apr-17 08:31N 35°35' E 140°06'0 0.0
2014-Apr-17 07:33N 35°35' E 140°06'0 0.0
2014-Apr-17 06:21N 35°35' E 140°06'0 0.0
2014-Apr-17 05:31N 35°35' E 140°06'0 0.0
2014-Apr-17 04:25N 35°35' E 140°06'0 0.0
2014-Apr-17 03:28N 35°35' E 140°06'0 0.0
2014-Apr-17 02:31N 35°35' E 140°06'0 0.0
2014-Apr-17 01:33N 35°35' E 140°06'0 0.0
2014-Apr-17 00:31N 35°35' E 140°06'0 0.0
2014-Apr-16 23:30N 35°35' E 140°06'1 0.9
2014-Apr-16 22:33N 35°36' E 140°05'5 4.8
2014-Apr-16 21:30N 35°34' E 139°59'0 0.1
2014-Apr-16 20:30N 35°34' E 139°59'0 0.0
2014-Apr-16 19:33N 35°34' E 139°59'0 0.0
2014-Apr-16 18:24N 35°34' E 139°59'0 0.0
2014-Apr-16 17:33N 35°34' E 139°59'0 0.0
2014-Apr-16 16:33N 35°34' E 139°59'0 0.0
2014-Apr-16 15:33N 35°34' E 139°59'0 0.0
2014-Apr-16 14:33N 35°34' E 139°59'0 0.0
2014-Apr-16 13:33N 35°34' E 139°59'0 0.3
2014-Apr-16 12:33N 35°34' E 139°59'9 8.9
2014-Apr-16 11:33N 35°28' E 139°51'1111.1
2014-Apr-16 10:33N 35°18' E 139°45'1010.1
2014-Apr-16 09:33N 35°08' E 139°46'1413.7
2014-Apr-16 08:33N 34°58' E 139°34'228 9.9
2014-Apr-15 09:34N 34°24' E 135°00'1111.5
2014-Apr-15 08:34N 34°34' E 135°07'  

Dump ship's entire track history

sailing weather and tide predictions

Four Nabucco — ZGAP9 — position and weather